sensor_id;sensor_type;location;lat;lon;timestamp;temperature;humidity
23568;DHT22;11962;50.838;4.430;2022-11-28T00:01:38;11.20;99.90
23568;DHT22;11962;50.838;4.430;2022-11-28T00:04:05;11.20;99.90
23568;DHT22;11962;50.838;4.430;2022-11-28T00:06:31;11.20;99.90
23568;DHT22;11962;50.838;4.430;2022-11-28T00:08:58;11.20;99.90
23568;DHT22;11962;50.838;4.430;2022-11-28T00:11:24;11.20;99.90
23568;DHT22;11962;50.838;4.430;2022-11-28T00:13:49;11.20;99.90
23568;DHT22;11962;50.838;4.430;2022-11-28T00:16:18;11.20;99.90
23568;DHT22;11962;50.838;4.430;2022-11-28T00:18:45;11.20;99.90
23568;DHT22;11962;50.838;4.430;2022-11-28T00:21:13;11.20;99.90
23568;DHT22;11962;50.838;4.430;2022-11-28T00:23:40;11.20;99.90
23568;DHT22;11962;50.838;4.430;2022-11-28T00:26:13;11.20;99.90
23568;DHT22;11962;50.838;4.430;2022-11-28T00:28:42;11.30;99.90
23568;DHT22;11962;50.838;4.430;2022-11-28T00:31:13;11.20;99.90
23568;DHT22;11962;50.838;4.430;2022-11-28T00:33:39;11.30;99.90
23568;DHT22;11962;50.838;4.430;2022-11-28T00:36:05;11.20;99.90
23568;DHT22;11962;50.838;4.430;2022-11-28T00:38:31;11.20;99.90
23568;DHT22;11962;50.838;4.430;2022-11-28T00:41:01;11.10;99.90
23568;DHT22;11962;50.838;4.430;2022-11-28T00:43:27;11.20;99.90
23568;DHT22;11962;50.838;4.430;2022-11-28T00:45:52;11.20;99.90
23568;DHT22;11962;50.838;4.430;2022-11-28T00:48:18;11.10;99.90
23568;DHT22;11962;50.838;4.430;2022-11-28T00:50:43;11.10;99.90
23568;DHT22;11962;50.838;4.430;2022-11-28T00:53:09;11.10;99.90
23568;DHT22;11962;50.838;4.430;2022-11-28T00:55:38;11.20;99.90
23568;DHT22;11962;50.838;4.430;2022-11-28T00:58:03;11.20;99.90
23568;DHT22;11962;50.838;4.430;2022-11-28T01:00:32;11.10;99.90
23568;DHT22;11962;50.838;4.430;2022-11-28T01:03:00;11.20;99.90
23568;DHT22;11962;50.838;4.430;2022-11-28T01:05:26;11.10;99.90
23568;DHT22;11962;50.838;4.430;2022-11-28T01:07:52;11.10;99.90
23568;DHT22;11962;50.838;4.430;2022-11-28T01:10:17;11.10;99.90
23568;DHT22;11962;50.838;4.430;2022-11-28T01:12:44;11.20;99.90
23568;DHT22;11962;50.838;4.430;2022-11-28T01:15:11;11.00;99.90
23568;DHT22;11962;50.838;4.430;2022-11-28T01:17:37;11.10;99.90
23568;DHT22;11962;50.838;4.430;2022-11-28T01:20:05;11.00;99.90
23568;DHT22;11962;50.838;4.430;2022-11-28T01:22:31;11.00;99.90
23568;DHT22;11962;50.838;4.430;2022-11-28T01:24:56;10.90;99.90
23568;DHT22;11962;50.838;4.430;2022-11-28T01:27:22;11.00;99.90
23568;DHT22;11962;50.838;4.430;2022-11-28T01:29:47;10.90;99.90
23568;DHT22;11962;50.838;4.430;2022-11-28T01:32:14;10.90;99.90
23568;DHT22;11962;50.838;4.430;2022-11-28T01:34:39;11.00;99.90
23568;DHT22;11962;50.838;4.430;2022-11-28T01:37:05;10.90;99.90
23568;DHT22;11962;50.838;4.430;2022-11-28T01:39:31;10.90;99.90
23568;DHT22;11962;50.838;4.430;2022-11-28T01:41:57;10.90;99.90
23568;DHT22;11962;50.838;4.430;2022-11-28T01:46:48;10.90;99.90
23568;DHT22;11962;50.838;4.430;2022-11-28T01:51:43;10.90;99.90
23568;DHT22;11962;50.838;4.430;2022-11-28T01:54:10;10.80;99.90
23568;DHT22;11962;50.838;4.430;2022-11-28T01:56:43;10.80;99.90
23568;DHT22;11962;50.838;4.430;2022-11-28T01:59:10;10.90;99.90
23568;DHT22;11962;50.838;4.430;2022-11-28T02:01:38;10.80;99.90
23568;DHT22;11962;50.838;4.430;2022-11-28T02:04:04;10.80;99.90
23568;DHT22;11962;50.838;4.430;2022-11-28T02:06:31;10.80;99.90
23568;DHT22;11962;50.838;4.430;2022-11-28T02:08:57;10.80;99.90
23568;DHT22;11962;50.838;4.430;2022-11-28T02:11:38;10.70;99.90
23568;DHT22;11962;50.838;4.430;2022-11-28T02:19:29;10.70;99.90
23568;DHT22;11962;50.838;4.430;2022-11-28T02:25:51;10.60;99.90
23568;DHT22;11962;50.838;4.430;2022-11-28T02:34:02;10.60;99.90
23568;DHT22;11962;50.838;4.430;2022-11-28T02:36:39;10.60;99.90
23568;DHT22;11962;50.838;4.430;2022-11-28T02:44:17;10.60;99.90
23568;DHT22;11962;50.838;4.430;2022-11-28T02:47:11;10.70;99.90
23568;DHT22;11962;50.838;4.430;2022-11-28T02:49:58;10.70;99.90
23568;DHT22;11962;50.838;4.430;2022-11-28T02:52:35;10.70;99.90
23568;DHT22;11962;50.838;4.430;2022-11-28T02:55:02;10.70;99.90
23568;DHT22;11962;50.838;4.430;2022-11-28T02:57:39;10.70;99.90
23568;DHT22;11962;50.838;4.430;2022-11-28T03:03:02;10.70;99.90
23568;DHT22;11962;50.838;4.430;2022-11-28T03:08:12;10.50;99.90
23568;DHT22;11962;50.838;4.430;2022-11-28T03:18:37;10.60;99.90
23568;DHT22;11962;50.838;4.430;2022-11-28T03:21:15;10.60;99.90
23568;DHT22;11962;50.838;4.430;2022-11-28T03:26:43;10.60;99.90
23568;DHT22;11962;50.838;4.430;2022-11-28T03:29:16;10.60;99.90
23568;DHT22;11962;50.838;4.430;2022-11-28T03:32:04;10.70;99.90
23568;DHT22;11962;50.838;4.430;2022-11-28T03:34:35;10.60;99.90
23568;DHT22;11962;50.838;4.430;2022-11-28T03:37:07;10.60;99.90
23568;DHT22;11962;50.838;4.430;2022-11-28T03:39:38;10.70;99.90
23568;DHT22;11962;50.838;4.430;2022-11-28T03:44:50;10.60;99.90
23568;DHT22;11962;50.838;4.430;2022-11-28T03:47:17;10.60;99.90
23568;DHT22;11962;50.838;4.430;2022-11-28T03:49:49;10.70;99.90
23568;DHT22;11962;50.838;4.430;2022-11-28T03:52:42;10.70;99.90
23568;DHT22;11962;50.838;4.430;2022-11-28T03:57:46;10.70;99.90
23568;DHT22;11962;50.838;4.430;2022-11-28T04:00:15;10.70;99.90
23568;DHT22;11962;50.838;4.430;2022-11-28T04:05:58;10.70;99.90
23568;DHT22;11962;50.838;4.430;2022-11-28T04:08:34;10.70;99.90
23568;DHT22;11962;50.838;4.430;2022-11-28T04:11:19;10.70;99.90
23568;DHT22;11962;50.838;4.430;2022-11-28T04:24:27;10.70;99.90
23568;DHT22;11962;50.838;4.430;2022-11-28T04:26:59;10.70;99.90
23568;DHT22;11962;50.838;4.430;2022-11-28T04:29:30;10.80;99.90
23568;DHT22;11962;50.838;4.430;2022-11-28T04:31:58;10.70;99.90
23568;DHT22;11962;50.838;4.430;2022-11-28T04:34:25;10.70;99.90
23568;DHT22;11962;50.838;4.430;2022-11-28T04:36:53;10.70;99.90
23568;DHT22;11962;50.838;4.430;2022-11-28T04:39:22;10.70;99.90
23568;DHT22;11962;50.838;4.430;2022-11-28T04:41:52;10.60;99.90
23568;DHT22;11962;50.838;4.430;2022-11-28T04:46:50;10.80;99.90
23568;DHT22;11962;50.838;4.430;2022-11-28T04:49:19;10.70;99.90
23568;DHT22;11962;50.838;4.430;2022-11-28T04:52:03;10.70;99.90
23568;DHT22;11962;50.838;4.430;2022-11-28T04:57:44;10.70;99.90
23568;DHT22;11962;50.838;4.430;2022-11-28T05:00:17;10.80;99.90
23568;DHT22;11962;50.838;4.430;2022-11-28T05:02:45;10.70;99.90
23568;DHT22;11962;50.838;4.430;2022-11-28T05:05:19;10.80;99.90
23568;DHT22;11962;50.838;4.430;2022-11-28T05:07:45;10.80;99.90
23568;DHT22;11962;50.838;4.430;2022-11-28T05:10:15;10.80;99.90
23568;DHT22;11962;50.838;4.430;2022-11-28T05:12:41;10.70;99.90
23568;DHT22;11962;50.838;4.430;2022-11-28T05:15:07;10.90;99.90
23568;DHT22;11962;50.838;4.430;2022-11-28T05:17:33;11.00;99.90
23568;DHT22;11962;50.838;4.430;2022-11-28T05:19:59;10.90;99.90
23568;DHT22;11962;50.838;4.430;2022-11-28T05:22:24;10.90;99.90
23568;DHT22;11962;50.838;4.430;2022-11-28T05:24:53;10.90;99.90
23568;DHT22;11962;50.838;4.430;2022-11-28T05:27:18;10.90;99.90
23568;DHT22;11962;50.838;4.430;2022-11-28T05:29:44;10.90;99.90
23568;DHT22;11962;50.838;4.430;2022-11-28T05:32:12;11.00;99.90
23568;DHT22;11962;50.838;4.430;2022-11-28T05:34:38;11.00;99.90
23568;DHT22;11962;50.838;4.430;2022-11-28T05:37:04;11.00;99.90
23568;DHT22;11962;50.838;4.430;2022-11-28T05:39:30;11.00;99.90
23568;DHT22;11962;50.838;4.430;2022-11-28T05:41:56;11.10;99.90
23568;DHT22;11962;50.838;4.430;2022-11-28T05:44:22;11.10;99.90
23568;DHT22;11962;50.838;4.430;2022-11-28T05:46:47;11.20;99.90
23568;DHT22;11962;50.838;4.430;2022-11-28T05:49:13;11.10;99.90
23568;DHT22;11962;50.838;4.430;2022-11-28T05:51:39;11.20;99.90
23568;DHT22;11962;50.838;4.430;2022-11-28T05:54:05;11.10;99.90
23568;DHT22;11962;50.838;4.430;2022-11-28T05:56:31;11.10;99.90
23568;DHT22;11962;50.838;4.430;2022-11-28T05:58:56;11.20;99.90
23568;DHT22;11962;50.838;4.430;2022-11-28T06:01:25;11.20;99.90
23568;DHT22;11962;50.838;4.430;2022-11-28T06:03:52;11.20;99.90
23568;DHT22;11962;50.838;4.430;2022-11-28T06:06:23;11.10;99.90
23568;DHT22;11962;50.838;4.430;2022-11-28T06:08:49;11.30;99.90
23568;DHT22;11962;50.838;4.430;2022-11-28T06:11:19;11.20;99.90
23568;DHT22;11962;50.838;4.430;2022-11-28T06:13:46;11.40;99.90
23568;DHT22;11962;50.838;4.430;2022-11-28T06:16:15;11.40;99.90
23568;DHT22;11962;50.838;4.430;2022-11-28T06:18:41;11.40;99.90
23568;DHT22;11962;50.838;4.430;2022-11-28T06:21:08;11.30;99.90
23568;DHT22;11962;50.838;4.430;2022-11-28T06:23:34;11.30;99.90
23568;DHT22;11962;50.838;4.430;2022-11-28T06:26:10;11.40;99.90
23568;DHT22;11962;50.838;4.430;2022-11-28T06:28:40;11.40;99.90
23568;DHT22;11962;50.838;4.430;2022-11-28T06:31:17;11.40;99.90
23568;DHT22;11962;50.838;4.430;2022-11-28T06:33:43;11.30;99.90
23568;DHT22;11962;50.838;4.430;2022-11-28T06:36:10;11.30;99.90
23568;DHT22;11962;50.838;4.430;2022-11-28T06:38:36;11.50;99.90
23568;DHT22;11962;50.838;4.430;2022-11-28T06:41:06;11.50;99.90
23568;DHT22;11962;50.838;4.430;2022-11-28T06:43:32;11.40;99.90
23568;DHT22;11962;50.838;4.430;2022-11-28T06:45:58;11.50;99.90
23568;DHT22;11962;50.838;4.430;2022-11-28T06:48:24;11.40;99.90
23568;DHT22;11962;50.838;4.430;2022-11-28T06:50:50;11.50;99.90
23568;DHT22;11962;50.838;4.430;2022-11-28T06:53:16;11.50;99.90
23568;DHT22;11962;50.838;4.430;2022-11-28T06:55:49;11.40;99.90
23568;DHT22;11962;50.838;4.430;2022-11-28T06:58:15;11.30;99.90
23568;DHT22;11962;50.838;4.430;2022-11-28T07:00:40;11.40;99.90
23568;DHT22;11962;50.838;4.430;2022-11-28T07:03:06;11.30;99.90
23568;DHT22;11962;50.838;4.430;2022-11-28T07:05:32;11.30;99.90
23568;DHT22;11962;50.838;4.430;2022-11-28T07:07:57;11.30;99.90
23568;DHT22;11962;50.838;4.430;2022-11-28T07:10:23;11.40;99.90
23568;DHT22;11962;50.838;4.430;2022-11-28T07:12:57;11.40;99.90
23568;DHT22;11962;50.838;4.430;2022-11-28T07:15:23;11.40;99.90
23568;DHT22;11962;50.838;4.430;2022-11-28T07:17:50;11.40;99.90
23568;DHT22;11962;50.838;4.430;2022-11-28T07:20:16;11.40;99.90
23568;DHT22;11962;50.838;4.430;2022-11-28T07:22:43;11.40;99.90
23568;DHT22;11962;50.838;4.430;2022-11-28T07:25:12;11.50;99.90
23568;DHT22;11962;50.838;4.430;2022-11-28T07:27:40;11.40;99.90
23568;DHT22;11962;50.838;4.430;2022-11-28T07:30:06;11.50;99.90
23568;DHT22;11962;50.838;4.430;2022-11-28T07:32:32;11.50;99.90
23568;DHT22;11962;50.838;4.430;2022-11-28T07:34:58;11.60;99.90
23568;DHT22;11962;50.838;4.430;2022-11-28T07:37:24;11.60;99.90
23568;DHT22;11962;50.838;4.430;2022-11-28T07:39:50;11.60;99.90
23568;DHT22;11962;50.838;4.430;2022-11-28T07:42:15;11.70;99.90
23568;DHT22;11962;50.838;4.430;2022-11-28T07:44:41;11.70;99.90
23568;DHT22;11962;50.838;4.430;2022-11-28T07:47:07;11.70;99.90
23568;DHT22;11962;50.838;4.430;2022-11-28T07:49:32;11.60;99.90
23568;DHT22;11962;50.838;4.430;2022-11-28T07:51:58;11.70;99.90
23568;DHT22;11962;50.838;4.430;2022-11-28T07:54:24;11.60;99.90
23568;DHT22;11962;50.838;4.430;2022-11-28T07:56:49;11.50;99.90
23568;DHT22;11962;50.838;4.430;2022-11-28T07:59:15;11.50;99.90
23568;DHT22;11962;50.838;4.430;2022-11-28T08:01:41;11.50;99.90
23568;DHT22;11962;50.838;4.430;2022-11-28T08:04:08;11.50;99.90
23568;DHT22;11962;50.838;4.430;2022-11-28T08:06:41;11.40;99.90
23568;DHT22;11962;50.838;4.430;2022-11-28T08:09:09;11.50;99.90
23568;DHT22;11962;50.838;4.430;2022-11-28T08:11:36;11.60;99.90
23568;DHT22;11962;50.838;4.430;2022-11-28T08:14:03;11.60;99.90
23568;DHT22;11962;50.838;4.430;2022-11-28T08:16:29;11.60;99.90
23568;DHT22;11962;50.838;4.430;2022-11-28T08:18:55;11.60;99.90
23568;DHT22;11962;50.838;4.430;2022-11-28T08:21:26;11.60;99.90
23568;DHT22;11962;50.838;4.430;2022-11-28T08:23:53;11.70;99.90
23568;DHT22;11962;50.838;4.430;2022-11-28T08:26:22;11.60;99.90
23568;DHT22;11962;50.838;4.430;2022-11-28T08:28:49;11.80;99.90
23568;DHT22;11962;50.838;4.430;2022-11-28T08:31:21;11.70;99.90
23568;DHT22;11962;50.838;4.430;2022-11-28T08:33:49;11.90;99.90
23568;DHT22;11962;50.838;4.430;2022-11-28T08:36:16;11.80;99.90
23568;DHT22;11962;50.838;4.430;2022-11-28T08:38:42;11.80;99.90
23568;DHT22;11962;50.838;4.430;2022-11-28T08:41:13;11.80;99.90
23568;DHT22;11962;50.838;4.430;2022-11-28T08:43:40;11.90;99.90
23568;DHT22;11962;50.838;4.430;2022-11-28T08:46:09;11.90;99.90
23568;DHT22;11962;50.838;4.430;2022-11-28T08:48:37;11.90;99.90
23568;DHT22;11962;50.838;4.430;2022-11-28T08:51:03;11.90;99.90
23568;DHT22;11962;50.838;4.430;2022-11-28T08:53:30;12.00;99.90
23568;DHT22;11962;50.838;4.430;2022-11-28T08:55:56;12.10;99.90
23568;DHT22;11962;50.838;4.430;2022-11-28T08:58:21;12.10;99.90
23568;DHT22;11962;50.838;4.430;2022-11-28T09:00:47;12.00;99.90
23568;DHT22;11962;50.838;4.430;2022-11-28T09:03:15;12.10;99.90
23568;DHT22;11962;50.838;4.430;2022-11-28T09:05:45;12.10;99.90
23568;DHT22;11962;50.838;4.430;2022-11-28T09:08:12;12.00;99.90
23568;DHT22;11962;50.838;4.430;2022-11-28T09:10:39;12.10;99.90
23568;DHT22;11962;50.838;4.430;2022-11-28T09:13:06;12.10;99.90
23568;DHT22;11962;50.838;4.430;2022-11-28T09:15:32;12.30;99.90
23568;DHT22;11962;50.838;4.430;2022-11-28T09:17:58;12.20;99.90
23568;DHT22;11962;50.838;4.430;2022-11-28T09:20:24;12.20;99.90
23568;DHT22;11962;50.838;4.430;2022-11-28T09:22:49;12.20;99.90
23568;DHT22;11962;50.838;4.430;2022-11-28T09:25:15;12.30;99.90
23568;DHT22;11962;50.838;4.430;2022-11-28T09:27:41;12.40;99.90
23568;DHT22;11962;50.838;4.430;2022-11-28T09:30:08;12.40;99.90
23568;DHT22;11962;50.838;4.430;2022-11-28T09:32:34;12.40;99.90
23568;DHT22;11962;50.838;4.430;2022-11-28T09:35:03;12.50;99.90
23568;DHT22;11962;50.838;4.430;2022-11-28T09:37:29;12.60;99.90
23568;DHT22;11962;50.838;4.430;2022-11-28T09:39:54;12.50;99.90
23568;DHT22;11962;50.838;4.430;2022-11-28T09:42:21;12.60;99.90
23568;DHT22;11962;50.838;4.430;2022-11-28T09:48:06;12.60;99.90
23568;DHT22;11962;50.838;4.430;2022-11-28T09:50:39;12.60;99.90
23568;DHT22;11962;50.838;4.430;2022-11-28T09:56:30;12.80;99.90
23568;DHT22;11962;50.838;4.430;2022-11-28T09:58:55;12.90;99.90
23568;DHT22;11962;50.838;4.430;2022-11-28T10:04:03;13.30;99.90
23568;DHT22;11962;50.838;4.430;2022-11-28T10:06:39;13.50;99.90
23568;DHT22;11962;50.838;4.430;2022-11-28T10:15:20;14.10;99.90
23568;DHT22;11962;50.838;4.430;2022-11-28T10:18:14;14.00;99.90
23568;DHT22;11962;50.838;4.430;2022-11-28T10:20:45;14.00;99.90
23568;DHT22;11962;50.838;4.430;2022-11-28T10:23:42;14.00;99.90
23568;DHT22;11962;50.838;4.430;2022-11-28T10:26:30;14.00;99.90
23568;DHT22;11962;50.838;4.430;2022-11-28T10:28:59;14.10;99.90
23568;DHT22;11962;50.838;4.430;2022-11-28T10:31:30;14.10;99.90
23568;DHT22;11962;50.838;4.430;2022-11-28T10:34:08;14.20;99.90
23568;DHT22;11962;50.838;4.430;2022-11-28T10:39:17;14.20;99.90
23568;DHT22;11962;50.838;4.430;2022-11-28T10:48:00;14.00;99.90
23568;DHT22;11962;50.838;4.430;2022-11-28T10:58:53;13.90;99.90
23568;DHT22;11962;50.838;4.430;2022-11-28T11:01:20;13.90;99.90
23568;DHT22;11962;50.838;4.430;2022-11-28T11:03:47;13.90;99.90
23568;DHT22;11962;50.838;4.430;2022-11-28T11:06:12;13.90;99.90
23568;DHT22;11962;50.838;4.430;2022-11-28T11:08:39;13.90;99.90
23568;DHT22;11962;50.838;4.430;2022-11-28T11:11:24;13.90;99.90
23568;DHT22;11962;50.838;4.430;2022-11-28T11:14:06;13.90;99.90
23568;DHT22;11962;50.838;4.430;2022-11-28T11:16:51;13.80;99.90
23568;DHT22;11962;50.838;4.430;2022-11-28T11:19:36;13.90;99.90
23568;DHT22;11962;50.838;4.430;2022-11-28T11:22:17;13.90;99.90
23568;DHT22;11962;50.838;4.430;2022-11-28T11:25:00;13.80;99.90
23568;DHT22;11962;50.838;4.430;2022-11-28T11:27:29;13.70;99.90
23568;DHT22;11962;50.838;4.430;2022-11-28T11:29:55;13.80;99.90
23568;DHT22;11962;50.838;4.430;2022-11-28T11:32:28;13.80;99.90
23568;DHT22;11962;50.838;4.430;2022-11-28T11:34:56;13.90;99.90
23568;DHT22;11962;50.838;4.430;2022-11-28T11:37:37;13.90;99.90
23568;DHT22;11962;50.838;4.430;2022-11-28T11:40:20;13.90;99.90
23568;DHT22;11962;50.838;4.430;2022-11-28T11:42:57;13.90;99.90
23568;DHT22;11962;50.838;4.430;2022-11-28T11:45:32;14.00;99.90
23568;DHT22;11962;50.838;4.430;2022-11-28T11:47:59;13.90;99.90
23568;DHT22;11962;50.838;4.430;2022-11-28T11:50:27;13.80;99.90
23568;DHT22;11962;50.838;4.430;2022-11-28T11:53:04;13.90;99.90
23568;DHT22;11962;50.838;4.430;2022-11-28T11:55:33;14.00;99.90
23568;DHT22;11962;50.838;4.430;2022-11-28T11:58:02;14.00;99.90
23568;DHT22;11962;50.838;4.430;2022-11-28T12:00:37;14.10;99.90
23568;DHT22;11962;50.838;4.430;2022-11-28T12:03:11;14.00;99.90
23568;DHT22;11962;50.838;4.430;2022-11-28T12:05:52;14.00;99.90
23568;DHT22;11962;50.838;4.430;2022-11-28T12:08:46;13.90;99.90
23568;DHT22;11962;50.838;4.430;2022-11-28T12:11:33;13.80;99.90
23568;DHT22;11962;50.838;4.430;2022-11-28T12:21:56;13.80;99.90
23568;DHT22;11962;50.838;4.430;2022-11-28T12:25:00;13.70;99.90
23568;DHT22;11962;50.838;4.430;2022-11-28T12:27:30;13.70;99.90
23568;DHT22;11962;50.838;4.430;2022-11-28T12:35:37;13.80;99.90
23568;DHT22;11962;50.838;4.430;2022-11-28T12:38:09;13.80;99.90
23568;DHT22;11962;50.838;4.430;2022-11-28T12:49:11;13.90;99.90
23568;DHT22;11962;50.838;4.430;2022-11-28T12:57:50;13.90;99.90
23568;DHT22;11962;50.838;4.430;2022-11-28T13:00:21;14.00;99.90
23568;DHT22;11962;50.838;4.430;2022-11-28T13:06:17;14.00;99.90
23568;DHT22;11962;50.838;4.430;2022-11-28T13:09:30;14.00;99.90
23568;DHT22;11962;50.838;4.430;2022-11-28T13:14:50;14.10;99.90
23568;DHT22;11962;50.838;4.430;2022-11-28T13:17:47;14.10;99.90
23568;DHT22;11962;50.838;4.430;2022-11-28T13:20:37;14.20;99.90
23568;DHT22;11962;50.838;4.430;2022-11-28T13:23:27;14.20;99.90
23568;DHT22;11962;50.838;4.430;2022-11-28T13:28:46;14.10;99.90
23568;DHT22;11962;50.838;4.430;2022-11-28T13:31:26;14.00;99.90
23568;DHT22;11962;50.838;4.430;2022-11-28T13:33:55;13.90;99.90
23568;DHT22;11962;50.838;4.430;2022-11-28T13:39:29;13.80;99.90
23568;DHT22;11962;50.838;4.430;2022-11-28T13:44:58;13.70;99.90
23568;DHT22;11962;50.838;4.430;2022-11-28T13:47:33;13.70;99.90
23568;DHT22;11962;50.838;4.430;2022-11-28T13:56:14;13.70;99.90
23568;DHT22;11962;50.838;4.430;2022-11-28T13:58:58;13.70;99.90
23568;DHT22;11962;50.838;4.430;2022-11-28T14:01:30;13.70;99.90
23568;DHT22;11962;50.838;4.430;2022-11-28T14:04:09;13.70;99.90
23568;DHT22;11962;50.838;4.430;2022-11-28T14:06:46;13.70;99.90
23568;DHT22;11962;50.838;4.430;2022-11-28T14:22:57;13.60;99.90
23568;DHT22;11962;50.838;4.430;2022-11-28T14:25:32;13.60;99.90
23568;DHT22;11962;50.838;4.430;2022-11-28T14:28:05;13.60;99.90
23568;DHT22;11962;50.838;4.430;2022-11-28T14:30:41;13.70;99.90
23568;DHT22;11962;50.838;4.430;2022-11-28T14:33:31;13.70;99.90
23568;DHT22;11962;50.838;4.430;2022-11-28T14:36:05;13.60;99.90
23568;DHT22;11962;50.838;4.430;2022-11-28T14:38:41;13.60;99.90
23568;DHT22;11962;50.838;4.430;2022-11-28T14:41:09;13.60;99.90
23568;DHT22;11962;50.838;4.430;2022-11-28T14:43:48;13.60;99.90
23568;DHT22;11962;50.838;4.430;2022-11-28T14:46:31;13.60;99.90
23568;DHT22;11962;50.838;4.430;2022-11-28T14:54:30;13.60;99.90
23568;DHT22;11962;50.838;4.430;2022-11-28T14:57:00;13.60;99.90
23568;DHT22;11962;50.838;4.430;2022-11-28T14:59:32;13.60;99.90
23568;DHT22;11962;50.838;4.430;2022-11-28T15:07:49;13.50;99.90
23568;DHT22;11962;50.838;4.430;2022-11-28T15:10:30;13.50;99.90
23568;DHT22;11962;50.838;4.430;2022-11-28T15:15:53;13.50;99.90
23568;DHT22;11962;50.838;4.430;2022-11-28T15:18:21;13.50;99.90
23568;DHT22;11962;50.838;4.430;2022-11-28T15:20:52;13.50;99.90
23568;DHT22;11962;50.838;4.430;2022-11-28T15:23:36;13.50;99.90
23568;DHT22;11962;50.838;4.430;2022-11-28T15:26:03;13.50;99.90
23568;DHT22;11962;50.838;4.430;2022-11-28T15:28:30;13.40;99.90
23568;DHT22;11962;50.838;4.430;2022-11-28T15:31:00;13.40;99.90
23568;DHT22;11962;50.838;4.430;2022-11-28T15:33:26;13.30;99.90
23568;DHT22;11962;50.838;4.430;2022-11-28T15:36:04;13.30;99.90
23568;DHT22;11962;50.838;4.430;2022-11-28T15:38:35;13.20;99.90
23568;DHT22;11962;50.838;4.430;2022-11-28T15:41:02;13.10;99.90
23568;DHT22;11962;50.838;4.430;2022-11-28T15:43:28;13.10;99.90
23568;DHT22;11962;50.838;4.430;2022-11-28T15:45:58;13.00;99.90
23568;DHT22;11962;50.838;4.430;2022-11-28T15:48:25;12.90;99.90
23568;DHT22;11962;50.838;4.430;2022-11-28T15:50:51;12.90;99.90
23568;DHT22;11962;50.838;4.430;2022-11-28T15:53:19;12.80;99.90
23568;DHT22;11962;50.838;4.430;2022-11-28T15:55:45;12.80;99.90
23568;DHT22;11962;50.838;4.430;2022-11-28T15:58:23;12.70;99.90
23568;DHT22;11962;50.838;4.430;2022-11-28T16:01:01;12.70;99.90
23568;DHT22;11962;50.838;4.430;2022-11-28T16:03:40;12.70;99.90
23568;DHT22;11962;50.838;4.430;2022-11-28T16:06:08;12.60;99.90
23568;DHT22;11962;50.838;4.430;2022-11-28T16:08:40;12.60;99.90
23568;DHT22;11962;50.838;4.430;2022-11-28T16:11:14;12.50;99.90
23568;DHT22;11962;50.838;4.430;2022-11-28T16:13:41;12.40;99.90
23568;DHT22;11962;50.838;4.430;2022-11-28T16:16:14;12.40;99.90
23568;DHT22;11962;50.838;4.430;2022-11-28T16:18:57;12.40;99.90
23568;DHT22;11962;50.838;4.430;2022-11-28T16:21:30;12.40;99.90
23568;DHT22;11962;50.838;4.430;2022-11-28T16:23:57;12.30;99.90
23568;DHT22;11962;50.838;4.430;2022-11-28T16:29:14;12.30;99.90
23568;DHT22;11962;50.838;4.430;2022-11-28T16:31:41;12.30;99.90
23568;DHT22;11962;50.838;4.430;2022-11-28T16:34:12;12.30;99.90
23568;DHT22;11962;50.838;4.430;2022-11-28T16:36:38;12.30;99.90
23568;DHT22;11962;50.838;4.430;2022-11-28T16:41:52;12.20;99.90
23568;DHT22;11962;50.838;4.430;2022-11-28T16:44:28;12.20;99.90
23568;DHT22;11962;50.838;4.430;2022-11-28T16:46:57;12.10;99.90
23568;DHT22;11962;50.838;4.430;2022-11-28T16:49:40;12.10;99.90
23568;DHT22;11962;50.838;4.430;2022-11-28T16:54:57;12.10;99.90
23568;DHT22;11962;50.838;4.430;2022-11-28T16:57:23;12.00;99.90
23568;DHT22;11962;50.838;4.430;2022-11-28T16:59:50;12.00;99.90
23568;DHT22;11962;50.838;4.430;2022-11-28T17:04:46;12.00;99.90
23568;DHT22;11962;50.838;4.430;2022-11-28T17:07:14;12.00;99.90
23568;DHT22;11962;50.838;4.430;2022-11-28T17:09:49;12.10;99.90
23568;DHT22;11962;50.838;4.430;2022-11-28T17:12:28;12.10;99.90
23568;DHT22;11962;50.838;4.430;2022-11-28T17:14:55;12.20;99.90
23568;DHT22;11962;50.838;4.430;2022-11-28T17:17:22;12.20;99.90
23568;DHT22;11962;50.838;4.430;2022-11-28T17:19:48;12.20;99.90
23568;DHT22;11962;50.838;4.430;2022-11-28T17:22:16;12.20;99.90
23568;DHT22;11962;50.838;4.430;2022-11-28T17:24:43;12.20;99.90
23568;DHT22;11962;50.838;4.430;2022-11-28T17:27:11;12.20;99.90
23568;DHT22;11962;50.838;4.430;2022-11-28T17:29:37;12.20;99.90
23568;DHT22;11962;50.838;4.430;2022-11-28T17:32:03;12.30;99.90
23568;DHT22;11962;50.838;4.430;2022-11-28T17:34:31;12.20;99.90
23568;DHT22;11962;50.838;4.430;2022-11-28T17:36:58;12.10;99.90
23568;DHT22;11962;50.838;4.430;2022-11-28T17:39:25;12.20;99.90
23568;DHT22;11962;50.838;4.430;2022-11-28T17:41:54;12.10;99.90
23568;DHT22;11962;50.838;4.430;2022-11-28T17:46:52;12.00;99.90
23568;DHT22;11962;50.838;4.430;2022-11-28T17:49:21;12.00;99.90
23568;DHT22;11962;50.838;4.430;2022-11-28T17:51:48;12.00;99.90
23568;DHT22;11962;50.838;4.430;2022-11-28T17:54:15;12.00;99.90
23568;DHT22;11962;50.838;4.430;2022-11-28T17:56:43;12.00;99.90
23568;DHT22;11962;50.838;4.430;2022-11-28T17:59:10;11.90;99.90
23568;DHT22;11962;50.838;4.430;2022-11-28T18:01:36;11.90;99.90
23568;DHT22;11962;50.838;4.430;2022-11-28T18:04:02;11.90;99.90
23568;DHT22;11962;50.838;4.430;2022-11-28T18:06:29;11.90;99.90
23568;DHT22;11962;50.838;4.430;2022-11-28T18:08:57;11.90;99.90
23568;DHT22;11962;50.838;4.430;2022-11-28T18:11:23;12.00;99.90
23568;DHT22;11962;50.838;4.430;2022-11-28T18:13:49;12.00;99.90
23568;DHT22;11962;50.838;4.430;2022-11-28T18:16:17;12.00;99.90
23568;DHT22;11962;50.838;4.430;2022-11-28T18:18:43;12.00;99.90
23568;DHT22;11962;50.838;4.430;2022-11-28T18:21:10;12.00;99.90
23568;DHT22;11962;50.838;4.430;2022-11-28T18:23:41;12.00;99.90
23568;DHT22;11962;50.838;4.430;2022-11-28T18:26:12;12.00;99.90
23568;DHT22;11962;50.838;4.430;2022-11-28T18:28:38;12.00;99.90
23568;DHT22;11962;50.838;4.430;2022-11-28T18:31:18;12.00;99.90
23568;DHT22;11962;50.838;4.430;2022-11-28T18:33:44;12.00;99.90
23568;DHT22;11962;50.838;4.430;2022-11-28T18:36:16;11.90;99.90
23568;DHT22;11962;50.838;4.430;2022-11-28T18:38:42;11.90;99.90
23568;DHT22;11962;50.838;4.430;2022-11-28T18:41:10;11.90;99.90
23568;DHT22;11962;50.838;4.430;2022-11-28T18:43:36;11.90;99.90
23568;DHT22;11962;50.838;4.430;2022-11-28T18:46:13;11.90;99.90
23568;DHT22;11962;50.838;4.430;2022-11-28T18:48:44;11.80;99.90
23568;DHT22;11962;50.838;4.430;2022-11-28T18:51:13;11.90;99.90
23568;DHT22;11962;50.838;4.430;2022-11-28T18:53:40;11.80;99.90
23568;DHT22;11962;50.838;4.430;2022-11-28T18:56:06;11.80;99.90
23568;DHT22;11962;50.838;4.430;2022-11-28T18:58:33;11.80;99.90